Time;durP1;ratioP1;P1;durP2;ratioP2;P2;SDS_P1;SDS_P2;PMS_P1;PMS_P2;Temp;Humidity;BMP_temperature;BMP_pressure;BME280_temperature;BME280_humidity;BME280_pressure;Samples;Min_cycle;Max_cycle;Signal;HPM_P1;HPM_P2
2022/10/27 00:00:56;;;;;;;16.77;8.50;;;18.90;99.90;;;;;;5057076;28;20075;-76
2022/10/27 00:03:23;;;;;;;20.58;10.63;;;18.90;99.90;;;;;;5072635;28;20351;-76
2022/10/27 00:05:51;;;;;;;16.25;10.50;;;18.90;99.90;;;;;;5058825;28;20055;-75
2022/10/27 00:08:20;;;;;;;21.38;10.07;;;18.90;99.90;;;;;;5035106;28;20044;-76
2022/10/27 00:10:58;;;;;;;19.27;10.30;;;18.90;99.90;;;;;;5076516;28;20051;-74
2022/10/27 00:13:28;;;;;;;25.80;10.25;;;18.80;99.90;;;;;;5051177;28;20067;-75
2022/10/27 00:16:10;;;;;;;19.33;9.00;;;18.80;99.90;;;;;;5051372;28;20048;-76
2022/10/27 00:18:38;;;;;;;15.90;9.15;;;18.90;99.90;;;;;;5057164;28;20105;-76
2022/10/27 00:21:17;;;;;;;20.70;9.73;;;18.90;99.90;;;;;;5070484;28;20558;-74
2022/10/27 00:23:51;;;;;;;14.13;9.35;;;18.90;99.90;;;;;;5061728;28;20044;-75
2022/10/27 00:26:20;;;;;;;18.02;9.48;;;18.90;99.90;;;;;;5058409;28;20098;-74
2022/10/27 00:28:48;;;;;;;16.58;8.93;;;18.90;99.90;;;;;;5066327;28;20037;-74
2022/10/27 00:31:21;;;;;;;19.23;8.40;;;18.80;99.90;;;;;;5034558;28;20078;-75
2022/10/27 00:33:50;;;;;;;15.75;8.98;;;18.70;99.90;;;;;;5032794;28;20051;-75
2022/10/27 00:36:22;;;;;;;19.40;9.65;;;18.60;99.90;;;;;;5068914;28;20037;-74
2022/10/27 00:38:55;;;;;;;16.30;8.48;;;18.50;99.90;;;;;;5054361;28;20072;-74
2022/10/27 00:41:24;;;;;;;16.08;8.48;;;18.60;99.90;;;;;;5072305;28;20491;-75
2022/10/27 00:43:52;;;;;;;18.88;10.95;;;18.50;99.90;;;;;;5069376;28;20051;-74
2022/10/27 00:46:45;;;;;;;18.40;9.60;;;18.50;99.90;;;;;;5071317;28;20047;-77
2022/10/27 00:49:17;;;;;;;19.05;8.57;;;18.50;99.90;;;;;;5067410;28;20052;-75
2022/10/27 00:51:51;;;;;;;20.23;9.27;;;18.60;99.90;;;;;;5032580;28;20071;-76
2022/10/27 00:54:20;;;;;;;20.73;9.50;;;18.60;99.90;;;;;;5033370;28;20048;-76
2022/10/27 00:56:51;;;;;;;13.30;8.93;;;18.60;99.90;;;;;;5049256;28;20049;-75
2022/10/27 00:59:20;;;;;;;19.67;8.63;;;18.70;99.90;;;;;;5016082;28;20407;-77
2022/10/27 01:01:50;;;;;;;21.55;9.02;;;18.60;99.90;;;;;;5049934;28;20075;-74
2022/10/27 01:04:36;;;;;;;18.45;9.35;;;18.60;99.90;;;;;;5051694;28;20439;-75
2022/10/27 01:07:03;;;;;;;18.00;8.57;;;18.60;99.90;;;;;;5071356;28;20094;-75
2022/10/27 01:09:31;;;;;;;21.75;10.02;;;18.50;99.90;;;;;;5070302;28;20037;-74
2022/10/27 01:11:59;;;;;;;19.25;8.75;;;18.40;99.90;;;;;;5053837;28;20050;-75
2022/10/27 01:14:27;;;;;;;26.38;10.90;;;18.40;99.90;;;;;;5070452;28;20052;-76
2022/10/27 01:17:18;;;;;;;19.90;8.68;;;18.40;99.90;;;;;;5069976;28;20483;-76
2022/10/27 01:20:11;;;;;;;19.60;10.48;;;18.30;99.90;;;;;;5053717;28;20044;-79
2022/10/27 01:22:41;;;;;;;15.60;8.82;;;18.30;99.90;;;;;;5071974;28;20048;-75
2022/10/27 01:25:41;;;;;;;19.92;10.07;;;18.30;99.90;;;;;;5071993;28;20055;-76
2022/10/27 01:28:46;;;;;;;15.80;8.65;;;18.30;99.90;;;;;;5066795;28;20122;-76
2022/10/27 01:31:20;;;;;;;16.60;10.35;;;18.20;99.90;;;;;;5053792;28;20044;-75
2022/10/27 01:33:53;;;;;;;14.30;9.07;;;18.20;99.90;;;;;;5061933;28;20566;-75
2022/10/27 01:36:40;;;;;;;21.75;11.07;;;18.20;99.90;;;;;;5033130;28;20067;-76
2022/10/27 01:39:19;;;;;;;13.90;8.30;;;18.20;99.90;;;;;;5050533;28;20123;-76
2022/10/27 01:41:50;;;;;;;18.08;9.65;;;18.30;99.90;;;;;;5033679;28;20080;-75
2022/10/27 01:44:26;;;;;;;17.15;8.32;;;18.30;99.90;;;;;;5033735;28;20052;-75
2022/10/27 01:46:56;;;;;;;20.23;10.27;;;18.30;99.90;;;;;;5033623;28;20511;-76
2022/10/27 01:49:23;;;;;;;22.80;10.98;;;18.30;99.90;;;;;;5065417;28;20053;-77
2022/10/27 01:51:51;;;;;;;19.38;8.50;;;18.30;99.90;;;;;;5049699;28;20139;-75
2022/10/27 01:54:19;;;;;;;19.92;9.60;;;18.30;99.90;;;;;;5051003;28;20525;-75
2022/10/27 01:56:49;;;;;;;18.02;8.38;;;18.30;99.90;;;;;;5033090;28;20048;-76
2022/10/27 01:59:33;;;;;;;19.10;9.15;;;18.40;99.90;;;;;;5051105;28;20053;-75
2022/10/27 02:02:35;;;;;;;20.75;9.65;;;18.40;99.90;;;;;;5051138;28;20036;-75
2022/10/27 02:05:09;;;;;;;14.27;8.90;;;18.30;99.90;;;;;;5000821;28;20055;-75
2022/10/27 02:08:04;;;;;;;17.27;10.93;;;18.30;99.90;;;;;;5049230;28;20195;-78
2022/10/27 02:10:38;;;;;;;18.00;8.55;;;18.20;99.90;;;;;;5033220;28;20123;-75
2022/10/27 02:13:06;;;;;;;15.05;7.75;;;18.20;99.90;;;;;;5065921;28;20124;-76
2022/10/27 02:15:56;;;;;;;15.77;9.20;;;18.20;99.90;;;;;;5049385;28;20467;-75
2022/10/27 02:18:29;;;;;;;24.83;10.20;;;18.20;99.90;;;;;;5032613;28;20053;-78
2022/10/27 02:21:01;;;;;;;19.27;9.50;;;18.20;99.90;;;;;;5049126;28;20557;-76
2022/10/27 02:23:30;;;;;;;16.65;9.20;;;18.20;99.90;;;;;;5049370;28;20387;-75
2022/10/27 02:26:18;;;;;;;20.13;7.75;;;18.20;99.90;;;;;;5081830;28;20127;-75
2022/10/27 02:29:05;;;;;;;20.88;9.45;;;18.20;99.90;;;;;;5068881;28;20072;-76
2022/10/27 02:31:34;;;;;;;;;;;18.20;99.90;;;;;;5071088;28;20048;-75
2022/10/27 02:34:04;;;;;;;14.15;8.73;;;18.20;99.90;;;;;;5069938;28;19971;-75
2022/10/27 02:36:31;;;;;;;17.17;9.18;;;18.20;99.90;;;;;;5070250;28;20428;-76
2022/10/27 02:38:59;;;;;;;16.63;8.02;;;18.20;99.90;;;;;;5052322;28;20079;-77
2022/10/27 02:41:27;;;;;;;14.93;8.15;;;18.20;99.90;;;;;;5052094;28;20052;-77
2022/10/27 02:43:54;;;;;;;14.00;7.90;;;18.20;99.90;;;;;;5069607;28;20048;-75
2022/10/27 02:46:22;;;;;;;17.73;9.27;;;18.20;99.90;;;;;;5052524;28;20051;-77
2022/10/27 02:48:50;;;;;;;18.80;8.85;;;18.20;99.90;;;;;;5051935;28;20052;-75
2022/10/27 02:51:17;;;;;;;13.30;8.13;;;18.20;99.90;;;;;;5068819;28;20044;-76
2022/10/27 02:53:45;;;;;;;14.68;7.53;;;18.20;99.90;;;;;;5051825;28;20052;-76
2022/10/27 02:56:12;;;;;;;16.42;8.32;;;18.20;99.90;;;;;;5070034;28;20116;-76
2022/10/27 02:58:40;;;;;;;17.05;8.70;;;18.20;99.90;;;;;;5068577;28;20045;-76
2022/10/27 03:01:07;;;;;;;11.85;7.57;;;18.10;99.90;;;;;;5062941;28;20045;-76
2022/10/27 03:03:35;;;;;;;14.82;8.50;;;18.10;99.90;;;;;;5031771;28;20064;-76
2022/10/27 03:06:03;;;;;;;13.25;7.70;;;18.10;99.90;;;;;;5015449;28;20052;-76
2022/10/27 03:08:31;;;;;;;18.63;9.95;;;18.10;99.90;;;;;;5031638;28;20053;-76
2022/10/27 03:10:58;;;;;;;15.88;8.18;;;18.00;99.90;;;;;;5048314;28;20095;-75
2022/10/27 03:13:26;;;;;;;17.95;8.63;;;18.10;99.90;;;;;;5032246;28;20148;-75
2022/10/27 03:15:53;;;;;;;17.83;9.07;;;18.10;99.90;;;;;;5049680;28;20068;-76
2022/10/27 03:18:21;;;;;;;15.88;9.82;;;18.00;99.90;;;;;;5050379;28;20127;-75
2022/10/27 03:20:48;;;;;;;19.55;8.38;;;18.00;99.90;;;;;;5048174;28;20056;-75
2022/10/27 03:23:16;;;;;;;16.90;9.23;;;17.90;99.90;;;;;;5031914;28;20049;-75
2022/10/27 03:25:44;;;;;;;16.83;9.23;;;17.90;99.90;;;;;;5047939;28;20044;-75
2022/10/27 03:28:14;;;;;;;17.95;9.30;;;17.90;99.90;;;;;;5064384;28;20045;-76
2022/10/27 03:30:42;;;;;;;16.33;8.38;;;17.90;99.90;;;;;;5064628;28;20041;-75
2022/10/27 03:33:09;;;;;;;16.63;9.77;;;17.90;99.90;;;;;;5048050;28;20060;-76
2022/10/27 03:35:37;;;;;;;16.13;8.25;;;17.90;99.90;;;;;;5047064;28;20553;-77
2022/10/27 03:38:04;;;;;;;16.40;9.20;;;17.90;99.90;;;;;;5048906;28;20068;-75
2022/10/27 03:40:32;;;;;;;15.82;7.22;;;17.80;99.90;;;;;;5064223;28;20406;-75
2022/10/27 03:43:00;;;;;;;14.15;7.47;;;17.80;99.90;;;;;;5047921;28;20406;-76
2022/10/27 03:45:27;;;;;;;19.95;8.40;;;17.70;99.90;;;;;;5064466;28;20533;-75
2022/10/27 03:48:00;;;;;;;12.20;7.68;;;17.70;99.90;;;;;;5064259;28;20068;-76
2022/10/27 03:50:28;;;;;;;14.20;7.55;;;17.70;99.90;;;;;;5064588;28;20459;-75
2022/10/27 03:52:55;;;;;;;37.17;8.88;;;17.70;99.90;;;;;;5067071;28;20044;-75
2022/10/27 03:55:24;;;;;;;18.30;8.63;;;17.70;99.90;;;;;;5068140;28;20463;-76
2022/10/27 03:57:52;;;;;;;14.27;9.13;;;17.70;99.90;;;;;;5067886;28;20479;-76
2022/10/27 04:00:21;;;;;;;18.15;9.02;;;17.70;99.90;;;;;;5034164;28;20517;-75
2022/10/27 04:02:51;;;;;;;21.48;9.25;;;17.70;99.90;;;;;;5068139;28;20466;-76
2022/10/27 04:05:19;;;;;;;20.58;8.43;;;17.70;99.90;;;;;;5068070;28;20082;-75
2022/10/27 04:07:47;;;;;;;18.40;8.02;;;17.80;99.90;;;;;;5051435;28;20044;-76
2022/10/27 04:10:14;;;;;;;18.65;8.93;;;17.80;99.90;;;;;;5069182;28;20051;-76
2022/10/27 04:12:53;;;;;;;28.92;10.63;;;17.80;99.90;;;;;;5069180;28;20048;-75
2022/10/27 04:15:22;;;;;;;16.33;8.95;;;17.80;99.90;;;;;;5060466;28;20486;-76
2022/10/27 04:17:58;;;;;;;18.17;8.73;;;17.80;99.90;;;;;;5047876;28;20072;-76
2022/10/27 04:20:27;;;;;;;20.38;9.77;;;17.80;99.90;;;;;;5031237;28;20110;-75
2022/10/27 04:22:56;;;;;;;15.65;8.52;;;17.80;99.90;;;;;;5049168;28;20448;-76
2022/10/27 04:25:24;;;;;;;24.33;10.15;;;17.80;99.90;;;;;;5014828;28;20057;-76
2022/10/27 04:28:03;;;;;;;17.35;7.28;;;17.90;99.90;;;;;;5047145;28;20048;-76
2022/10/27 04:30:31;;;;;;;15.70;8.93;;;17.90;99.90;;;;;;5047497;28;20056;-76
2022/10/27 04:32:59;;;;;;;18.63;8.02;;;18.00;99.90;;;;;;5014647;28;20068;-75
2022/10/27 04:35:27;;;;;;;18.45;9.48;;;17.90;99.90;;;;;;5047455;28;20417;-75
2022/10/27 04:37:55;;;;;;;18.73;8.57;;;17.80;99.90;;;;;;5047524;28;20060;-75
2022/10/27 04:40:23;;;;;;;18.05;8.30;;;17.80;99.90;;;;;;5048949;28;20064;-76
2022/10/27 04:42:51;;;;;;;20.08;10.00;;;17.80;99.90;;;;;;5048868;28;20463;-76
2022/10/27 04:45:19;;;;;;;16.10;9.02;;;17.80;99.90;;;;;;5047714;28;20533;-75
2022/10/27 04:47:47;;;;;;;17.27;8.93;;;17.70;99.90;;;;;;5031006;28;20150;-76
2022/10/27 04:50:15;;;;;;;15.32;8.50;;;17.70;99.90;;;;;;5047339;28;20113;-75
2022/10/27 04:52:57;;;;;;;16.73;8.15;;;17.60;99.90;;;;;;5048959;28;20565;-75
2022/10/27 04:55:25;;;;;;;15.90;7.70;;;17.60;99.90;;;;;;5037166;28;20067;-76
2022/10/27 04:57:53;;;;;;;17.42;9.30;;;17.60;99.90;;;;;;5067362;28;20048;-76
2022/10/27 05:00:22;;;;;;;18.48;8.48;;;17.60;99.90;;;;;;5067008;28;20040;-76
2022/10/27 05:02:55;;;;;;;18.70;10.68;;;17.50;99.90;;;;;;5068543;28;20479;-75
2022/10/27 05:05:24;;;;;;;23.50;9.00;;;17.50;99.90;;;;;;5067462;28;20072;-75
2022/10/27 05:08:02;;;;;;;17.48;8.38;;;17.50;99.90;;;;;;5050996;28;20544;-78
2022/10/27 05:10:31;;;;;;;19.30;9.25;;;17.40;99.90;;;;;;5054452;28;20063;-76
2022/10/27 05:12:59;;;;;;;15.30;8.40;;;17.40;99.90;;;;;;5050381;28;20096;-75
2022/10/27 05:15:27;;;;;;;19.73;9.38;;;17.40;99.90;;;;;;5051174;28;20462;-75
2022/10/27 05:17:55;;;;;;;20.92;9.18;;;17.40;99.90;;;;;;5034203;28;20438;-76
2022/10/27 05:20:23;;;;;;;19.67;9.23;;;17.50;99.90;;;;;;5034465;28;20072;-75
2022/10/27 05:22:50;;;;;;;22.85;9.27;;;17.50;99.90;;;;;;5051301;28;20037;-74
2022/10/27 05:25:18;;;;;;;30.58;10.18;;;17.50;99.90;;;;;;5034552;28;20033;-74
2022/10/27 05:27:46;;;;;;;19.67;9.65;;;17.50;99.90;;;;;;5050493;28;20045;-76
2022/10/27 05:30:14;;;;;;;13.80;8.25;;;17.50;99.90;;;;;;5050490;28;20041;-78
2022/10/27 05:32:41;;;;;;;19.60;7.90;;;17.50;99.90;;;;;;5050481;28;20055;-77
2022/10/27 05:35:09;;;;;;;16.77;9.10;;;17.50;99.90;;;;;;5033557;28;20064;-77
2022/10/27 05:37:42;;;;;;;17.48;8.98;;;17.50;99.90;;;;;;5051766;28;20044;-76
2022/10/27 05:40:10;;;;;;;17.17;9.20;;;17.60;99.90;;;;;;5034515;28;20430;-77
2022/10/27 05:42:38;;;;;;;17.73;8.50;;;17.60;99.90;;;;;;5051789;28;20128;-77
2022/10/27 05:45:06;;;;;;;28.85;10.30;;;17.60;99.90;;;;;;5051688;28;20053;-75
2022/10/27 05:47:33;;;;;;;22.55;9.93;;;17.60;99.90;;;;;;5051012;28;20061;-76
2022/10/27 05:50:01;;;;;;;23.58;10.88;;;17.70;99.90;;;;;;5033964;28;20525;-76
2022/10/27 05:52:28;;;;;;;21.30;9.98;;;17.70;99.90;;;;;;5034016;28;20052;-76
2022/10/27 05:54:56;;;;;;;16.92;9.00;;;17.70;99.90;;;;;;5051877;28;20057;-77
2022/10/27 05:57:23;;;;;;;17.88;10.60;;;17.80;99.90;;;;;;5051649;28;20052;-76
2022/10/27 05:59:51;;;;;;;23.23;9.63;;;17.80;99.90;;;;;;5069880;28;20043;-76
2022/10/27 06:02:18;;;;;;;21.17;10.38;;;17.90;99.90;;;;;;5053574;28;20049;-76
2022/10/27 06:04:46;;;;;;;23.33;10.80;;;17.90;99.90;;;;;;5069428;28;20068;-75
2022/10/27 06:07:14;;;;;;;16.38;10.88;;;18.00;99.90;;;;;;5053941;28;20091;-75
2022/10/27 06:09:42;;;;;;;29.38;11.60;;;18.00;99.90;;;;;;5069875;28;20463;-77
2022/10/27 06:12:09;;;;;;;18.45;10.65;;;18.10;99.90;;;;;;5071117;28;20083;-76
2022/10/27 06:14:37;;;;;;;23.10;11.02;;;18.20;99.90;;;;;;5070241;28;20056;-75
2022/10/27 06:17:04;;;;;;;27.35;12.23;;;18.40;99.90;;;;;;5053893;28;20123;-75
2022/10/27 06:19:32;;;;;;;22.75;10.15;;;18.40;99.90;;;;;;5070026;28;20039;-78
2022/10/27 06:22:00;;;;;;;21.10;9.98;;;18.50;99.90;;;;;;5069624;28;20048;-75
2022/10/27 06:24:28;;;;;;;15.60;9.98;;;18.50;99.90;;;;;;5035936;28;20503;-77
2022/10/27 06:26:56;;;;;;;30.15;11.98;;;18.50;99.90;;;;;;5074378;28;20082;-75
2022/10/27 06:29:24;;;;;;;28.40;9.80;;;18.60;99.90;;;;;;5078365;28;20056;-78
2022/10/27 06:31:52;;;;;;;18.27;9.75;;;18.60;99.90;;;;;;5059121;28;20094;-75
2022/10/27 06:34:19;;;;;;;17.67;10.65;;;18.70;99.90;;;;;;5046227;28;20494;-75
2022/10/27 06:36:47;;;;;;;19.10;9.70;;;18.70;99.90;;;;;;5068810;28;20049;-75
2022/10/27 06:39:14;;;;;;;17.35;9.75;;;18.80;99.90;;;;;;5061571;28;20052;-76
2022/10/27 06:41:42;;;;;;;17.67;10.45;;;18.80;99.90;;;;;;5078876;28;20499;-76
2022/10/27 06:44:13;;;;;;;19.45;9.73;;;18.90;99.90;;;;;;5061388;28;20410;-76
2022/10/27 06:46:40;;;;;;;20.02;10.65;;;18.90;99.90;;;;;;5048636;28;20117;-75
2022/10/27 06:49:08;;;;;;;17.40;8.70;;;18.90;99.90;;;;;;5076423;28;20047;-77
2022/10/27 06:51:36;;;;;;;15.07;8.85;;;19.00;99.90;;;;;;5052823;28;20053;-83
2022/10/27 06:54:06;;;;;;;21.13;10.80;;;19.00;99.90;;;;;;5070735;28;20052;-78
2022/10/27 06:56:34;;;;;;;24.52;10.60;;;19.00;99.90;;;;;;5070406;28;20037;-77
2022/10/27 06:59:01;;;;;;;20.08;9.18;;;19.10;99.90;;;;;;5064550;28;20072;-77
2022/10/27 07:01:30;;;;;;;25.15;10.00;;;19.10;99.90;;;;;;5055433;28;20067;-77
2022/10/27 07:03:58;;;;;;;16.98;10.80;;;19.20;99.90;;;;;;5068910;28;20062;-78
2022/10/27 07:06:25;;;;;;;21.45;10.70;;;19.20;99.90;;;;;;5038255;28;20041;-79
2022/10/27 07:08:53;;;;;;;19.77;11.35;;;19.30;99.90;;;;;;5049061;28;20049;-77
2022/10/27 07:11:25;;;;;;;20.92;9.60;;;19.30;99.90;;;;;;5042919;28;20053;-77
2022/10/27 07:13:53;;;;;;;34.90;10.40;;;19.40;99.90;;;;;;5049708;28;20041;-77
2022/10/27 07:16:21;;;;;;;28.75;10.90;;;19.40;99.90;;;;;;5031438;28;20079;-76
2022/10/27 07:18:50;;;;;;;31.92;10.27;;;19.50;99.90;;;;;;5048431;28;20044;-77
2022/10/27 07:21:18;;;;;;;28.33;10.40;;;19.60;99.90;;;;;;5061391;28;20490;-77
2022/10/27 07:23:46;;;;;;;25.33;10.05;;;19.60;99.90;;;;;;5033535;28;20044;-78
2022/10/27 07:26:14;;;;;;;34.35;12.15;;;19.60;99.90;;;;;;5069060;28;20048;-77
2022/10/27 07:28:41;;;;;;;18.45;10.75;;;19.60;99.90;;;;;;5067847;28;20409;-78
2022/10/27 07:31:09;;;;;;;28.08;12.82;;;19.70;99.90;;;;;;5048326;28;20044;-79
2022/10/27 07:33:37;;;;;;;24.58;10.23;;;19.70;99.90;;;;;;5039678;28;20482;-78
2022/10/27 07:36:04;;;;;;;21.35;9.93;;;19.70;99.90;;;;;;5048082;28;20127;-76
2022/10/27 07:38:32;;;;;;;21.73;10.75;;;19.70;99.90;;;;;;5049187;28;20049;-77
2022/10/27 07:40:59;;;;;;;20.20;10.27;;;19.70;99.90;;;;;;5048982;28;20082;-75
2022/10/27 07:43:27;;;;;;;18.30;9.85;;;19.80;99.90;;;;;;5062301;28;20386;-74
2022/10/27 07:45:55;;;;;;;15.40;10.02;;;19.70;99.90;;;;;;5047742;28;20045;-75
2022/10/27 07:48:22;;;;;;;20.55;10.07;;;19.80;99.90;;;;;;5051346;28;20041;-76
2022/10/27 07:50:50;;;;;;;25.38;10.23;;;19.70;99.90;;;;;;5059417;28;20048;-76
2022/10/27 07:53:18;;;;;;;19.67;8.98;;;19.80;99.90;;;;;;5046737;28;20061;-76
2022/10/27 07:55:46;;;;;;;16.38;9.43;;;19.90;99.90;;;;;;5047863;28;20083;-76
2022/10/27 07:58:15;;;;;;;24.27;10.25;;;20.00;99.90;;;;;;5049494;28;20079;-75
2022/10/27 08:00:45;;;;;;;20.83;9.07;;;20.00;99.90;;;;;;5039513;28;20049;-75
2022/10/27 08:03:25;;;;;;;20.10;8.75;;;20.10;99.90;;;;;;5048589;28;20398;-77
2022/10/27 08:05:53;;;;;;;28.80;10.40;;;20.20;99.90;;;;;;5059299;28;20043;-75
2022/10/27 08:08:21;;;;;;;17.40;9.25;;;20.20;99.90;;;;;;5041473;28;20059;-76
2022/10/27 08:10:49;;;;;;;16.42;9.73;;;20.30;99.90;;;;;;5069302;28;20163;-76
2022/10/27 08:13:17;;;;;;;24.05;8.95;;;20.30;99.90;;;;;;5051807;28;20083;-76
2022/10/27 08:15:44;;;;;;;16.67;9.45;;;20.30;99.90;;;;;;5051520;28;20041;-76
2022/10/27 08:18:13;;;;;;;19.23;8.18;;;20.40;99.90;;;;;;5064479;28;20107;-77
2022/10/27 08:20:44;;;;;;;17.20;8.90;;;20.40;99.90;;;;;;5063866;28;20142;-76
2022/10/27 08:23:14;;;;;;;23.27;8.35;;;20.50;99.90;;;;;;5066492;28;20094;-75
2022/10/27 08:25:43;;;;;;;17.33;8.77;;;20.60;99.90;;;;;;5064364;28;20032;-75
2022/10/27 08:28:11;;;;;;;18.00;9.60;;;20.60;99.90;;;;;;5046515;28;20044;-75
2022/10/27 08:30:40;;;;;;;17.60;9.25;;;20.60;99.90;;;;;;5052029;28;20056;-77
2022/10/27 08:33:12;;;;;;;22.38;9.30;;;20.80;99.90;;;;;;5050180;28;20502;-76
2022/10/27 08:35:40;;;;;;;17.48;8.52;;;21.00;99.90;;;;;;5071026;28;20155;-77
2022/10/27 08:38:13;;;;;;;22.85;9.88;;;21.10;99.90;;;;;;5072251;28;20076;-79
2022/10/27 08:40:44;;;;;;;25.92;9.45;;;21.40;99.90;;;;;;5069077;28;20045;-76
2022/10/27 08:43:37;;;;;;;25.10;9.05;;;21.70;99.90;;;;;;5054316;28;20842;-77
2022/10/27 08:46:11;;;;;;;18.52;9.20;;;22.20;99.90;;;;;;5070668;28;20048;-77
2022/10/27 08:48:39;;;;;;;13.88;7.57;;;22.30;99.90;;;;;;5074127;28;20048;-76
2022/10/27 08:51:17;;;;;;;20.02;8.57;;;22.50;99.90;;;;;;5048314;28;20140;-75
2022/10/27 08:53:49;;;;;;;21.45;7.40;;;22.60;99.90;;;;;;5064570;28;20441;-76
2022/10/27 08:56:20;;;;;;;18.33;8.15;;;22.30;99.90;;;;;;5035434;28;20048;-76
2022/10/27 08:58:48;;;;;;;16.80;7.43;;;22.50;99.90;;;;;;5053126;28;20521;-76
2022/10/27 09:01:23;;;;;;;16.40;7.28;;;22.70;99.90;;;;;;5068957;28;20106;-75
2022/10/27 09:04:21;;;;;;;18.42;8.57;;;22.80;99.90;;;;;;5050680;28;20053;-75
2022/10/27 09:07:11;;;;;;;12.65;7.18;;;22.80;99.90;;;;;;5069690;28;20554;-76
2022/10/27 09:09:58;;;;;;;17.52;7.78;;;23.10;99.90;;;;;;5044728;28;20049;-76
2022/10/27 09:12:26;;;;;;;12.40;7.13;;;23.20;99.90;;;;;;5066818;28;20048;-76
2022/10/27 09:15:18;;;;;;;17.83;8.18;;;23.20;99.90;;;;;;5050768;28;20048;-75
2022/10/27 09:17:55;;;;;;;14.10;8.48;;;23.20;99.90;;;;;;5035177;28;20051;-75
2022/10/27 09:20:50;;;;;;;22.20;7.88;;;23.40;99.90;;;;;;5069191;28;20128;-74
2022/10/27 09:23:24;;;;;;;26.60;9.48;;;23.30;99.90;;;;;;5064930;28;20052;-75
2022/10/27 09:25:53;;;;;;;16.90;8.43;;;23.40;99.90;;;;;;5066794;28;20090;-76
2022/10/27 09:28:50;;;;;;;18.95;8.93;;;23.30;99.90;;;;;;5034387;28;20133;-75
2022/10/27 09:31:30;;;;;;;16.60;7.82;;;23.20;99.90;;;;;;5062475;28;20076;-75
2022/10/27 09:34:15;;;;;;;15.23;8.65;;;23.00;99.90;;;;;;5050591;28;20032;-75
2022/10/27 09:36:43;;;;;;;22.48;7.95;;;22.80;99.90;;;;;;5066893;28;20043;-75
2022/10/27 09:39:10;;;;;;;13.57;7.45;;;22.70;99.90;;;;;;5070876;28;20059;-75
2022/10/27 09:41:38;;;;;;;14.27;7.25;;;22.60;99.90;;;;;;5052208;28;20040;-76
2022/10/27 09:44:20;;;;;;;15.82;6.50;;;22.50;99.90;;;;;;5069490;28;20040;-74
2022/10/27 09:46:51;;;;;;;20.30;7.30;;;22.50;99.90;;;;;;5050892;28;20211;-76
2022/10/27 09:49:22;;;;;;;22.40;9.30;;;22.60;99.90;;;;;;5059306;28;20092;-76
2022/10/27 09:52:05;;;;;;;16.63;7.20;;;22.80;99.90;;;;;;5033161;28;20037;-76
2022/10/27 09:54:38;;;;;;;15.13;7.57;;;23.10;99.90;;;;;;5066787;28;20048;-75
2022/10/27 09:57:19;;;;;;;19.20;6.88;;;23.10;99.90;;;;;;5031729;28;20474;-74
2022/10/27 10:00:27;;;;;;;14.05;7.10;;;23.20;99.90;;;;;;5048245;28;20063;-76
2022/10/27 10:03:05;;;;;;;17.20;7.63;;;23.40;99.90;;;;;;5063196;28;20075;-76
2022/10/27 10:05:37;;;;;;;16.05;7.55;;;23.50;99.90;;;;;;5065258;28;20056;-75
2022/10/27 10:08:10;;;;;;;13.80;7.43;;;23.70;99.90;;;;;;5048742;28;20049;-76
2022/10/27 10:10:39;;;;;;;12.48;6.82;;;23.70;99.90;;;;;;5034232;28;20076;-75
2022/10/27 10:13:13;;;;;;;17.40;7.15;;;23.40;99.90;;;;;;5065928;28;20475;-75
2022/10/27 10:15:44;;;;;;;16.90;8.38;;;23.40;99.90;;;;;;5050714;28;20154;-74
2022/10/27 10:18:27;;;;;;;22.80;7.63;;;23.50;99.90;;;;;;5048799;28;20060;-75
2022/10/27 10:20:56;;;;;;;17.65;7.18;;;23.50;99.90;;;;;;5048809;28;20044;-74
2022/10/27 10:23:44;;;;;;;18.42;7.72;;;23.70;99.90;;;;;;5063791;28;20098;-75
2022/10/27 10:26:30;;;;;;;18.17;7.85;;;23.90;99.90;;;;;;5070334;28;20118;-74
2022/10/27 10:29:07;;;;;;;13.18;7.00;;;24.10;99.90;;;;;;5044176;28;20098;-73
2022/10/27 10:31:35;;;;;;;15.02;7.60;;;24.30;99.90;;;;;;5031701;28;20415;-74
2022/10/27 10:34:07;;;;;;;16.02;6.18;;;24.50;99.90;;;;;;5048275;28;20518;-74
2022/10/27 10:36:38;;;;;;;21.17;7.70;;;24.70;99.90;;;;;;5050329;28;20053;-74
2022/10/27 10:39:26;;;;;;;23.08;7.13;;;24.90;99.90;;;;;;5069932;28;20043;-74
2022/10/27 10:42:09;;;;;;;15.32;6.75;;;25.00;99.90;;;;;;5046407;28;20463;-74
2022/10/27 10:44:37;;;;;;;13.50;6.68;;;24.90;99.90;;;;;;5056573;28;20044;-75
2022/10/27 10:47:19;;;;;;;17.05;7.40;;;25.00;99.90;;;;;;5068434;28;20056;-75
2022/10/27 10:49:54;;;;;;;11.82;6.28;;;25.10;99.90;;;;;;5068310;28;20245;-75
2022/10/27 10:52:27;;;;;;;11.52;5.60;;;25.10;99.90;;;;;;5065562;28;20135;-75
2022/10/27 10:54:54;;;;;;;11.18;6.95;;;25.10;99.90;;;;;;5065080;28;20032;-74
2022/10/27 10:57:44;;;;;;;15.75;6.60;;;25.20;99.90;;;;;;5050091;28;20468;-76
2022/10/27 11:00:17;;;;;;;19.75;7.38;;;25.10;99.90;;;;;;5050696;28;21275;-74
2022/10/27 11:02:54;;;;;;;13.55;6.30;;;25.10;99.90;;;;;;5049011;28;20102;-74
2022/10/27 11:05:34;;;;;;;13.13;6.68;;;25.10;99.90;;;;;;5048205;28;20044;-74
2022/10/27 11:08:04;;;;;;;11.98;5.78;;;25.00;99.90;;;;;;5067639;28;20040;-74
2022/10/27 11:10:36;;;;;;;21.77;8.63;;;25.00;99.90;;;;;;5050478;28;20063;-76
2022/10/27 11:13:11;;;;;;;16.88;7.45;;;24.90;99.90;;;;;;5050444;28;20045;-76
2022/10/27 11:15:43;;;;;;;24.98;10.80;;;25.00;99.90;;;;;;5067238;28;20093;-75
2022/10/27 11:18:24;;;;;;;26.80;12.93;;;25.10;99.90;;;;;;5050314;28;20449;-75
2022/10/27 11:21:00;;;;;;;28.35;13.52;;;25.10;99.90;;;;;;5034297;28;20619;-76
2022/10/27 11:23:35;;;;;;;15.43;7.15;;;25.10;99.90;;;;;;5067450;28;20124;-75
2022/10/27 11:26:04;;;;;;;18.90;6.72;;;25.20;99.90;;;;;;5064173;28;20489;-77
2022/10/27 11:29:05;;;;;;;16.10;5.93;;;25.20;99.90;;;;;;5050570;28;20506;-76
2022/10/27 11:31:52;;;;;;;15.43;7.43;;;25.30;99.90;;;;;;5041425;28;20087;-74
2022/10/27 11:34:41;;;;;;;25.20;8.52;;;25.20;99.90;;;;;;5059935;28;20044;-73
2022/10/27 11:37:36;;;;;;;18.35;6.53;;;25.20;99.90;;;;;;5061227;28;20056;-76
2022/10/27 11:40:45;;;;;;;17.77;5.35;;;25.10;99.90;;;;;;5045704;28;20443;-77
2022/10/27 11:43:24;;;;;;;13.48;5.93;;;25.20;99.90;;;;;;5063139;28;20036;-76
2022/10/27 11:46:03;;;;;;;15.60;6.72;;;25.20;99.90;;;;;;5049418;28;20549;-73
2022/10/27 11:48:33;;;;;;;15.77;6.30;;;25.10;99.90;;;;;;5057487;28;20066;-77
2022/10/27 11:51:28;;;;;;;13.23;5.97;;;25.10;99.90;;;;;;5050564;28;20068;-77
2022/10/27 11:53:56;;;;;;;10.70;5.47;;;25.10;99.90;;;;;;5064744;28;20439;-73
2022/10/27 11:56:27;;;;;;;15.25;6.50;;;25.00;99.90;;;;;;5072789;28;20036;-74
2022/10/27 11:59:14;;;;;;;14.43;6.28;;;25.00;99.90;;;;;;5056902;28;20052;-76
2022/10/27 12:01:59;;;;;;;17.73;7.40;;;25.00;99.90;;;;;;5055831;28;20049;-75
2022/10/27 12:04:44;;;;;;;20.45;6.78;;;25.00;99.90;;;;;;5063546;28;20116;-74
2022/10/27 12:07:50;;;;;;;18.07;8.27;;;24.90;99.90;;;;;;5065102;28;20056;-73
2022/10/27 12:10:23;;;;;;;11.73;5.63;;;24.80;99.90;;;;;;5042442;28;20049;-75
2022/10/27 12:12:57;;;;;;;14.80;6.65;;;24.80;99.90;;;;;;5066441;28;20059;-75
2022/10/27 12:15:49;;;;;;;15.02;6.07;;;24.80;99.90;;;;;;5058626;28;20475;-74
2022/10/27 12:18:32;;;;;;;14.38;7.38;;;24.90;99.90;;;;;;5063768;28;20056;-75
2022/10/27 12:21:22;;;;;;;17.90;7.68;;;24.70;99.90;;;;;;5063384;28;20613;-75
2022/10/27 12:24:01;;;;;;;13.98;6.53;;;24.60;99.90;;;;;;5067973;28;20485;-76
2022/10/27 12:26:33;;;;;;;15.60;7.20;;;24.60;99.90;;;;;;5072211;28;20158;-76
2022/10/27 12:29:04;;;;;;;11.88;6.30;;;24.60;99.90;;;;;;5064157;28;20117;-77
2022/10/27 12:31:35;;;;;;;12.30;6.53;;;24.80;99.90;;;;;;5049562;28;20044;-76
2022/10/27 12:34:06;;;;;;;17.48;6.82;;;24.60;99.90;;;;;;5059046;28;20166;-75
2022/10/27 12:37:03;;;;;;;10.45;5.95;;;24.50;99.90;;;;;;5052797;28;20045;-75
2022/10/27 12:39:48;;;;;;;14.00;6.50;;;24.60;99.90;;;;;;5065629;28;20052;-75
2022/10/27 12:42:46;;;;;;;14.75;6.18;;;24.50;99.90;;;;;;5064916;28;20232;-76
2022/10/27 12:45:36;;;;;;;15.10;6.65;;;24.50;99.90;;;;;;5069059;28;20048;-75
2022/10/27 12:48:18;;;;;;;16.02;7.82;;;24.40;99.90;;;;;;5064858;28;20069;-76
2022/10/27 12:51:12;;;;;;;15.52;6.15;;;24.40;99.90;;;;;;5059773;28;20048;-75
2022/10/27 12:53:44;;;;;;;14.70;6.47;;;24.20;99.90;;;;;;5051298;28;20052;-76
2022/10/27 12:56:33;;;;;;;13.60;6.60;;;24.20;99.90;;;;;;5063084;28;20603;-75
2022/10/27 12:59:31;;;;;;;13.10;7.22;;;24.10;99.90;;;;;;5069681;28;20043;-76
2022/10/27 13:02:08;;;;;;;14.27;6.97;;;24.00;99.90;;;;;;5046198;28;20052;-75
2022/10/27 13:05:03;;;;;;;17.83;7.20;;;24.00;99.90;;;;;;5049863;28;20055;-76
2022/10/27 13:07:49;;;;;;;20.30;7.25;;;24.00;99.90;;;;;;5051176;28;20060;-76